createdAt,value
2022-08-21T00:01:55.897Z,93.05
2022-08-21T00:04:29.540Z,92.36
2022-08-21T00:07:00.821Z,93.02
2022-08-21T00:09:29.529Z,92.92
2022-08-21T00:11:58.712Z,92.86
2022-08-21T00:14:27.453Z,92.83
2022-08-21T00:17:01.696Z,93.05
2022-08-21T00:19:32.257Z,93.06
2022-08-21T00:22:02.391Z,92.90
2022-08-21T00:24:31.173Z,93.86
2022-08-21T00:26:59.902Z,92.80
2022-08-21T00:29:28.759Z,91.69
2022-08-21T00:31:57.561Z,90.22
2022-08-21T00:34:26.323Z,91.20
2022-08-21T00:36:55.381Z,91.29
2022-08-21T00:39:25.652Z,90.87
2022-08-21T00:41:54.466Z,91.11
2022-08-21T00:44:23.541Z,92.10
2022-08-21T00:46:52.264Z,91.67
2022-08-21T00:49:21.087Z,91.95
2022-08-21T00:51:52.957Z,92.22
2022-08-21T00:54:23.431Z,92.05
2022-08-21T00:56:57.018Z,91.51
2022-08-21T00:59:30.681Z,91.82
2022-08-21T01:01:59.628Z,92.13
2022-08-21T01:04:28.657Z,92.28
2022-08-21T01:06:57.651Z,92.54
2022-08-21T01:09:26.443Z,92.97
2022-08-21T01:11:56.937Z,92.88
2022-08-21T01:14:25.760Z,93.69
2022-08-21T01:16:54.985Z,92.96
2022-08-21T01:19:24.239Z,93.04
2022-08-21T01:21:54.789Z,92.68
2022-08-21T01:24:24.483Z,93.44
2022-08-21T01:26:54.032Z,92.44
2022-08-21T01:29:32.097Z,92.58
2022-08-21T01:32:02.159Z,91.91
2022-08-21T01:34:31.394Z,92.03
2022-08-21T01:37:01.545Z,91.82
2022-08-21T01:39:30.529Z,91.98
2022-08-21T01:41:59.271Z,91.94
2022-08-21T01:44:28.305Z,91.54
2022-08-21T01:46:57.286Z,91.52
2022-08-21T01:49:26.178Z,91.46
2022-08-21T01:51:55.006Z,91.59
2022-08-21T01:54:25.141Z,91.26
2022-08-21T01:56:55.980Z,91.43
2022-08-21T01:59:25.959Z,92.15
2022-08-21T02:01:55.487Z,92.80
2022-08-21T02:04:24.591Z,92.80
2022-08-21T02:06:53.387Z,92.68
2022-08-21T02:09:22.780Z,92.07
2022-08-21T02:11:54.659Z,91.53
2022-08-21T02:14:32.501Z,91.82
2022-08-21T02:17:05.166Z,91.75
2022-08-21T02:19:39.559Z,91.87
2022-08-21T02:22:10.463Z,91.73
2022-08-21T02:24:54.584Z,92.19
2022-08-21T02:27:27.446Z,92.18
2022-08-21T02:29:58.408Z,92.44
2022-08-21T02:32:27.595Z,92.75
2022-08-21T02:34:56.961Z,93.23
2022-08-21T02:37:26.551Z,93.44
2022-08-21T02:39:55.508Z,93.49
2022-08-21T02:42:25.733Z,93.32
2022-08-21T02:44:54.504Z,92.16
2022-08-21T02:47:23.332Z,91.43
2022-08-21T02:49:52.077Z,91.05
2022-08-21T02:52:22.758Z,91.25
2022-08-21T02:54:51.817Z,90.65
2022-08-21T02:57:20.718Z,90.93
2022-08-21T02:59:50.881Z,91.69
2022-08-21T03:02:19.652Z,92.17
2022-08-21T03:04:48.420Z,92.60
2022-08-21T03:07:17.203Z,92.19
2022-08-21T03:09:55.833Z,92.56
2022-08-21T03:12:24.936Z,92.34
2022-08-21T03:14:58.746Z,92.20
2022-08-21T03:17:29.321Z,92.09
2022-08-21T03:19:59.456Z,92.19
2022-08-21T03:22:30.914Z,91.97
2022-08-21T03:25:00.313Z,92.46
2022-08-21T03:27:29.847Z,92.54
2022-08-21T03:30:00.732Z,92.35
2022-08-21T03:32:30.024Z,92.20
2022-08-21T03:34:58.947Z,91.78
2022-08-21T03:37:28.438Z,91.68
2022-08-21T03:39:57.401Z,91.46
2022-08-21T03:42:26.281Z,91.95
2022-08-21T03:44:55.020Z,92.18
2022-08-21T03:47:25.171Z,92.84
2022-08-21T03:49:53.941Z,92.83
2022-08-21T03:52:22.706Z,92.15
2022-08-21T03:54:52.121Z,92.73
2022-08-21T03:57:21.039Z,92.57
2022-08-21T03:59:50.390Z,92.80
2022-08-21T04:02:21.916Z,92.68
2022-08-21T04:04:52.095Z,93.34
2022-08-21T04:07:20.826Z,93.00
2022-08-21T04:09:49.609Z,92.70
2022-08-21T04:12:18.386Z,92.91
2022-08-21T04:14:47.515Z,92.75
2022-08-21T04:17:16.189Z,92.32
2022-08-21T04:19:44.926Z,92.50
2022-08-21T04:22:15.071Z,92.38
2022-08-21T04:24:43.890Z,92.32
2022-08-21T04:27:12.645Z,92.35
2022-08-21T04:29:41.426Z,92.42
2022-08-21T04:32:10.201Z,92.64
2022-08-21T04:34:38.973Z,92.31
2022-08-21T04:37:08.000Z,92.72
2022-08-21T04:39:38.214Z,92.78
2022-08-21T04:42:08.485Z,93.51
2022-08-21T04:44:37.484Z,93.63
2022-08-21T04:47:06.814Z,92.77
2022-08-21T04:49:35.625Z,92.65
2022-08-21T04:52:05.242Z,93.01
2022-08-21T04:54:34.657Z,93.04
2022-08-21T04:57:08.573Z,92.88
2022-08-21T04:59:39.407Z,92.43
2022-08-21T05:02:10.405Z,91.93
2022-08-21T05:04:43.275Z,92.41
2022-08-21T05:07:17.552Z,91.74
2022-08-21T05:10:08.725Z,91.79
2022-08-21T05:12:38.808Z,92.05
2022-08-21T05:15:08.497Z,91.95
2022-08-21T05:17:42.381Z,92.68
2022-08-21T05:20:12.476Z,92.33
2022-08-21T05:22:42.294Z,92.30
2022-08-21T05:25:11.564Z,92.58
2022-08-21T05:27:43.231Z,91.15
2022-08-21T05:30:12.915Z,91.17
2022-08-21T05:32:41.693Z,91.29
2022-08-21T05:35:10.827Z,92.31
2022-08-21T05:37:39.641Z,92.30
2022-08-21T05:40:22.741Z,91.99
2022-08-21T05:42:55.650Z,91.95
2022-08-21T05:45:43.159Z,92.01
2022-08-21T05:48:14.757Z,91.57
2022-08-21T05:50:43.849Z,92.00
2022-08-21T05:53:13.906Z,91.89
2022-08-21T05:55:46.161Z,91.68
2022-08-21T05:58:18.598Z,92.61
2022-08-21T06:00:48.939Z,92.53
2022-08-21T06:03:20.550Z,91.87
2022-08-21T06:05:49.470Z,92.08
2022-08-21T06:08:19.493Z,91.66
2022-08-21T06:10:49.437Z,91.72
2022-08-21T06:13:21.682Z,91.46
2022-08-21T06:15:50.830Z,91.77
2022-08-21T06:18:19.656Z,91.12
2022-08-21T06:20:48.794Z,90.36
2022-08-21T06:23:17.537Z,91.03
2022-08-21T06:25:47.055Z,91.33
2022-08-21T06:28:16.000Z,90.20
2022-08-21T06:30:46.125Z,89.95
2022-08-21T06:33:14.826Z,88.72
2022-08-21T06:35:47.041Z,88.57
2022-08-21T06:38:15.929Z,88.70
2022-08-21T06:40:48.080Z,88.49
2022-08-21T06:43:18.548Z,87.86
2022-08-21T06:45:48.727Z,87.58
2022-08-21T06:48:19.568Z,86.57
2022-08-21T06:50:49.306Z,86.01
2022-08-21T06:53:20.055Z,85.85
2022-08-21T06:55:49.633Z,85.45
2022-08-21T06:58:18.757Z,84.64
2022-08-21T07:00:52.126Z,84.87
2022-08-21T07:03:22.500Z,83.31
2022-08-21T07:05:51.640Z,81.95
2022-08-21T07:08:20.409Z,82.16
2022-08-21T07:10:49.884Z,83.34
2022-08-21T07:13:19.027Z,82.56
2022-08-21T07:15:49.158Z,82.63
2022-08-21T07:18:17.987Z,82.11
2022-08-21T07:20:46.902Z,80.33
2022-08-21T07:23:23.711Z,78.74
2022-08-21T07:25:52.798Z,78.60
2022-08-21T07:28:21.844Z,76.37
2022-08-21T07:30:54.221Z,75.03
2022-08-21T07:33:23.365Z,75.16
2022-08-21T07:35:52.126Z,75.37
2022-08-21T07:38:21.033Z,74.16
2022-08-21T07:40:50.504Z,72.46
2022-08-21T07:43:19.284Z,70.73
2022-08-21T07:45:48.043Z,68.66
2022-08-21T07:48:18.509Z,68.00
2022-08-21T07:50:47.347Z,67.66
2022-08-21T07:53:16.425Z,66.77
2022-08-21T07:55:45.347Z,66.18
2022-08-21T07:58:14.230Z,65.41
2022-08-21T08:00:43.419Z,64.99
2022-08-21T08:03:12.664Z,63.18
2022-08-21T08:05:42.941Z,65.29
2022-08-21T08:08:12.091Z,66.30
2022-08-21T08:10:40.872Z,64.11
2022-08-21T08:13:10.528Z,62.70
2022-08-21T08:15:39.551Z,61.18
2022-08-21T08:18:08.773Z,60.33
2022-08-21T08:20:37.771Z,62.53
2022-08-21T08:23:07.847Z,57.78
2022-08-21T08:25:37.063Z,60.34
2022-08-21T08:28:16.497Z,56.11
2022-08-21T08:30:47.229Z,55.29
2022-08-21T08:33:16.021Z,55.91
2022-08-21T08:35:46.903Z,53.62
2022-08-21T08:38:19.772Z,54.86
2022-08-21T08:40:54.119Z,55.87
2022-08-21T08:43:22.846Z,53.83
2022-08-21T08:45:53.293Z,55.97
2022-08-21T08:48:34.204Z,53.43
2022-08-21T08:51:04.783Z,52.98
2022-08-21T08:53:37.719Z,54.09
2022-08-21T08:56:07.721Z,53.37
2022-08-21T08:58:39.544Z,55.00
2022-08-21T09:01:13.089Z,54.77
2022-08-21T09:03:42.080Z,54.12
2022-08-21T09:06:19.057Z,51.34
2022-08-21T09:08:57.660Z,51.88
2022-08-21T09:11:31.246Z,54.26
2022-08-21T09:14:10.829Z,53.85
2022-08-21T09:16:45.817Z,51.12
2022-08-21T09:19:26.179Z,53.53
2022-08-21T09:22:03.396Z,52.15
2022-08-21T09:24:35.310Z,49.62
2022-08-21T09:27:09.245Z,49.23
2022-08-21T09:29:40.670Z,50.69
2022-08-21T09:32:18.399Z,48.06
2022-08-21T09:34:59.977Z,47.68
2022-08-21T09:37:30.754Z,47.09
2022-08-21T09:40:01.309Z,48.79
2022-08-21T09:42:33.039Z,46.21
2022-08-21T09:45:11.596Z,48.18
2022-08-21T09:47:40.405Z,49.15
2022-08-21T09:50:11.412Z,50.00
2022-08-21T09:52:45.820Z,47.66
2022-08-21T09:55:40.469Z,47.82
2022-08-21T09:58:10.712Z,46.01
2022-08-21T10:00:39.888Z,46.88
2022-08-21T10:03:15.116Z,45.04
2022-08-21T10:05:54.736Z,43.04
2022-08-21T10:08:26.134Z,43.57
2022-08-21T10:11:06.223Z,44.16
2022-08-21T10:13:47.591Z,43.77
2022-08-21T10:16:26.672Z,43.68
2022-08-21T10:19:05.009Z,41.37
2022-08-21T10:21:39.277Z,44.30
2022-08-21T10:24:12.239Z,43.72
2022-08-21T10:27:10.847Z,41.59
2022-08-21T10:29:48.848Z,39.08
2022-08-21T10:32:28.208Z,42.66
2022-08-21T10:35:04.845Z,39.81
2022-08-21T10:37:41.473Z,41.92
2022-08-21T10:40:18.127Z,39.72
2022-08-21T10:42:58.178Z,43.06
2022-08-21T10:45:38.403Z,38.92
2022-08-21T10:48:08.915Z,37.61
2022-08-21T10:50:40.885Z,37.34
2022-08-21T10:53:37.020Z,39.47
2022-08-21T10:56:15.471Z,35.44
2022-08-21T10:58:56.636Z,37.73
2022-08-21T11:01:29.555Z,36.95
2022-08-21T11:04:13.577Z,35.99
2022-08-21T11:06:47.955Z,33.86
2022-08-21T11:09:18.567Z,35.11
2022-08-21T11:11:59.558Z,37.74
2022-08-21T11:14:50.615Z,37.54
2022-08-21T11:17:23.084Z,34.45
2022-08-21T11:19:55.686Z,34.30
2022-08-21T11:22:29.073Z,38.18
2022-08-21T11:25:01.534Z,39.01
2022-08-21T11:27:36.469Z,34.79
2022-08-21T11:30:09.427Z,36.75
2022-08-21T11:32:58.545Z,38.80
2022-08-21T11:35:34.223Z,39.52
2022-08-21T11:38:13.563Z,37.37
2022-08-21T11:40:57.149Z,35.01
2022-08-21T11:43:31.277Z,38.72
2022-08-21T11:46:11.058Z,38.11
2022-08-21T11:48:46.021Z,36.67
2022-08-21T11:51:18.060Z,41.57
2022-08-21T11:53:54.251Z,37.49
2022-08-21T11:56:26.192Z,38.79
2022-08-21T11:58:59.201Z,38.76
2022-08-21T12:01:32.520Z,37.10
2022-08-21T12:04:05.102Z,36.55
2022-08-21T12:06:36.191Z,36.53
2022-08-21T12:09:07.853Z,33.22
2022-08-21T12:11:48.853Z,33.43
2022-08-21T12:14:19.808Z,34.23
2022-08-21T12:16:51.609Z,34.88
2022-08-21T12:19:32.781Z,32.92
2022-08-21T12:22:10.957Z,35.37
2022-08-21T12:24:42.637Z,36.59
2022-08-21T12:27:29.466Z,33.21
2022-08-21T12:30:02.631Z,32.87
2022-08-21T12:32:45.587Z,33.64
2022-08-21T12:35:24.827Z,34.72
2022-08-21T12:37:58.748Z,33.74
2022-08-21T12:40:31.429Z,33.63
2022-08-21T12:43:01.717Z,35.35
2022-08-21T12:45:33.948Z,37.13
2022-08-21T12:48:08.777Z,37.07
2022-08-21T12:50:39.433Z,32.24
2022-08-21T12:53:18.547Z,35.24
2022-08-21T12:55:50.213Z,31.70
2022-08-21T12:58:20.393Z,33.59
2022-08-21T13:00:51.742Z,32.94
2022-08-21T13:03:22.087Z,33.80
2022-08-21T13:05:52.774Z,34.07
2022-08-21T13:08:22.641Z,34.60
2022-08-21T13:10:57.871Z,33.56
2022-08-21T13:13:28.778Z,36.71
2022-08-21T13:16:02.330Z,32.60
2022-08-21T13:18:35.767Z,30.75
2022-08-21T13:21:08.056Z,27.54
2022-08-21T13:23:37.134Z,28.69
2022-08-21T13:26:18.366Z,30.23
2022-08-21T13:28:48.597Z,28.97
2022-08-21T13:31:21.187Z,29.91
2022-08-21T13:33:51.803Z,30.62
2022-08-21T13:36:23.993Z,30.58
2022-08-21T13:38:54.511Z,29.89
2022-08-21T13:41:26.627Z,32.05
2022-08-21T13:43:59.985Z,29.07
2022-08-21T13:46:30.666Z,32.31
2022-08-21T13:49:02.743Z,31.59
2022-08-21T13:51:32.247Z,31.74
2022-08-21T13:54:02.473Z,31.73
2022-08-21T13:56:34.460Z,30.01
2022-08-21T13:59:05.160Z,30.29
2022-08-21T14:01:37.205Z,29.56
2022-08-21T14:04:10.503Z,28.50
2022-08-21T14:06:40.190Z,28.56
2022-08-21T14:09:14.069Z,29.02
2022-08-21T14:11:42.983Z,30.43
2022-08-21T14:14:19.772Z,30.32
2022-08-21T14:16:56.367Z,28.88
2022-08-21T14:19:28.762Z,31.13
2022-08-21T14:21:57.483Z,30.00
2022-08-21T14:24:32.247Z,30.25
2022-08-21T14:27:06.861Z,32.28
2022-08-21T14:29:37.823Z,30.14
2022-08-21T14:32:21.815Z,29.28
2022-08-21T14:34:56.158Z,31.63
2022-08-21T14:40:14.630Z,32.49
2022-08-21T14:42:43.672Z,31.94
2022-08-21T14:45:15.733Z,31.72
2022-08-21T14:47:45.099Z,33.19
2022-08-21T14:50:15.456Z,35.30
2022-08-21T14:52:46.683Z,32.11
2022-08-21T14:55:17.865Z,32.86
2022-08-21T14:57:49.370Z,31.57
2022-08-21T15:00:20.419Z,31.60
2022-08-21T15:02:49.270Z,33.93
2022-08-21T15:05:31.644Z,32.44
2022-08-21T15:08:02.566Z,33.24
2022-08-21T15:10:32.413Z,32.55
2022-08-21T15:13:01.301Z,31.85
2022-08-21T15:15:30.819Z,32.63
2022-08-21T15:17:59.882Z,34.19
2022-08-21T15:20:29.976Z,31.74
2022-08-21T15:22:58.861Z,32.24
2022-08-21T15:25:28.023Z,31.43
2022-08-21T15:27:57.389Z,30.95
2022-08-21T15:30:26.184Z,32.95
2022-08-21T15:32:54.990Z,33.74
2022-08-21T15:35:23.919Z,32.93
2022-08-21T15:37:54.031Z,32.75
2022-08-21T15:40:23.035Z,33.93
2022-08-21T15:42:53.831Z,34.90
2022-08-21T15:45:22.832Z,31.60
2022-08-21T15:47:52.231Z,32.29
2022-08-21T15:50:21.316Z,31.15
2022-08-21T15:52:50.329Z,30.56
2022-08-21T15:55:20.760Z,31.56
2022-08-21T15:57:56.808Z,31.61
2022-08-21T16:00:28.897Z,31.55
2022-08-21T16:02:59.812Z,32.85
2022-08-21T16:05:28.799Z,36.03
2022-08-21T16:07:57.592Z,34.59
2022-08-21T16:10:29.800Z,32.26
2022-08-21T16:13:01.276Z,35.11
2022-08-21T16:15:30.396Z,32.96
2022-08-21T16:17:59.235Z,33.87
2022-08-21T16:20:30.550Z,34.63
2022-08-21T16:23:00.337Z,34.22
2022-08-21T16:25:30.632Z,32.07
2022-08-21T16:28:03.345Z,34.16
2022-08-21T16:30:32.610Z,34.49
2022-08-21T16:33:02.190Z,34.26
2022-08-21T16:35:31.290Z,32.69
2022-08-21T16:38:00.222Z,32.82
2022-08-21T16:40:30.770Z,33.24
2022-08-21T16:42:59.801Z,33.25
2022-08-21T16:45:32.999Z,34.12
2022-08-21T16:48:04.389Z,31.87
2022-08-21T16:50:33.152Z,32.58
2022-08-21T16:53:01.910Z,34.63
2022-08-21T16:55:32.434Z,32.65
2022-08-21T16:58:10.436Z,35.61
2022-08-21T17:00:39.222Z,35.58
2022-08-21T17:03:08.112Z,32.43
2022-08-21T17:05:36.910Z,32.93
2022-08-21T17:08:05.691Z,32.83
2022-08-21T17:10:35.883Z,33.37
2022-08-21T17:13:09.571Z,33.19
2022-08-21T17:15:39.448Z,33.62
2022-08-21T17:18:10.655Z,33.96
2022-08-21T17:20:39.976Z,33.50
2022-08-21T17:23:09.107Z,33.52
2022-08-21T17:25:41.080Z,33.69
2022-08-21T17:28:10.089Z,33.53
2022-08-21T17:30:42.837Z,34.29
2022-08-21T17:33:11.742Z,33.45
2022-08-21T17:35:40.853Z,33.78
2022-08-21T17:38:12.711Z,33.97
2022-08-21T17:40:45.541Z,32.88
2022-08-21T17:43:15.231Z,33.55
2022-08-21T17:45:44.933Z,34.52
2022-08-21T17:48:13.973Z,35.25
2022-08-21T17:50:42.783Z,34.32
2022-08-21T17:53:11.510Z,34.88
2022-08-21T17:55:41.507Z,34.87
2022-08-21T17:58:14.531Z,34.85
2022-08-21T18:00:44.374Z,34.62
2022-08-21T18:03:16.482Z,36.08
2022-08-21T18:05:47.357Z,37.82
2022-08-21T18:08:16.556Z,37.31
2022-08-21T18:10:47.562Z,38.56
2022-08-21T18:13:24.277Z,39.26
2022-08-21T18:15:54.347Z,38.40
2022-08-21T18:18:25.210Z,41.85
2022-08-21T18:20:55.829Z,41.37
2022-08-21T18:23:43.226Z,39.25
2022-08-21T18:26:14.233Z,39.74
2022-08-21T18:28:45.173Z,39.72
2022-08-21T18:31:14.719Z,40.76
2022-08-21T18:33:57.750Z,40.88
2022-08-21T18:36:29.296Z,41.36
2022-08-21T18:39:13.599Z,41.95
2022-08-21T18:41:48.284Z,43.09
2022-08-21T18:44:20.147Z,43.13
2022-08-21T18:46:51.613Z,42.70
2022-08-21T18:49:20.668Z,43.01
2022-08-21T18:51:51.049Z,42.62
2022-08-21T18:56:51.317Z,42.29
2022-08-21T18:59:25.827Z,42.80
2022-08-21T19:01:55.614Z,44.05
2022-08-21T19:04:42.824Z,45.07
2022-08-21T19:07:14.282Z,45.65
2022-08-21T19:09:56.888Z,46.11
2022-08-21T19:12:31.180Z,46.68
2022-08-21T19:15:01.926Z,46.96
2022-08-21T19:17:31.819Z,47.36
2022-08-21T19:20:06.037Z,46.99
2022-08-21T19:22:34.905Z,47.27
2022-08-21T19:25:05.918Z,47.14
2022-08-21T19:27:34.973Z,47.67
2022-08-21T19:30:07.165Z,48.52
2022-08-21T19:32:39.498Z,47.29
2022-08-21T19:35:12.692Z,47.92
2022-08-21T19:37:41.461Z,47.84
2022-08-21T19:40:12.154Z,48.97
2022-08-21T19:42:41.147Z,49.55
2022-08-21T19:45:12.086Z,48.89
2022-08-21T19:47:44.231Z,49.10
2022-08-21T19:50:17.995Z,50.44
2022-08-21T19:52:51.364Z,50.21
2022-08-21T19:55:26.213Z,50.58
2022-08-21T19:57:55.763Z,50.50
2022-08-21T20:00:26.014Z,51.31
2022-08-21T20:02:55.375Z,50.08
2022-08-21T20:05:24.194Z,52.31
2022-08-21T20:07:52.960Z,52.36
2022-08-21T20:10:22.572Z,52.18
2022-08-21T20:12:51.763Z,51.49
2022-08-21T20:15:21.970Z,52.02
2022-08-21T20:17:53.502Z,53.11
2022-08-21T20:20:22.309Z,53.45
2022-08-21T20:22:51.101Z,54.76
2022-08-21T20:25:21.531Z,53.88
2022-08-21T20:27:50.273Z,52.91
2022-08-21T20:30:22.939Z,55.14
2022-08-21T20:32:53.200Z,55.09
2022-08-21T20:35:21.984Z,54.91
2022-08-21T20:37:58.852Z,56.16
2022-08-21T20:40:32.779Z,56.70
2022-08-21T20:43:02.517Z,56.62
2022-08-21T20:45:33.846Z,56.00
2022-08-21T20:48:07.956Z,55.43
2022-08-21T20:50:39.406Z,55.19
2022-08-21T20:53:13.635Z,55.82
2022-08-21T20:55:46.719Z,56.12
2022-08-21T20:58:29.890Z,56.27
2022-08-21T21:01:01.578Z,56.43
2022-08-21T21:03:36.359Z,56.59
2022-08-21T21:06:09.512Z,56.97
2022-08-21T21:08:46.732Z,57.33
2022-08-21T21:11:19.281Z,58.10
2022-08-21T21:13:50.762Z,57.62
2022-08-21T21:16:24.345Z,58.23
2022-08-21T21:19:01.039Z,58.22
2022-08-21T21:21:33.675Z,58.12
2022-08-21T21:24:08.012Z,58.55
2022-08-21T21:26:46.211Z,58.47
2022-08-21T21:29:22.658Z,58.25
2022-08-21T21:31:52.951Z,58.63
2022-08-21T21:34:24.668Z,58.59
2022-08-21T21:36:59.027Z,59.59
2022-08-21T21:39:36.467Z,59.91
2022-08-21T21:42:13.564Z,60.07
2022-08-21T21:44:55.290Z,61.93
2022-08-21T21:47:32.987Z,61.32
2022-08-21T21:50:21.114Z,60.68
2022-08-21T21:53:01.046Z,60.83
2022-08-21T21:55:42.519Z,61.23
2022-08-21T21:58:28.914Z,61.81
2022-08-21T22:01:11.905Z,62.21
2022-08-21T22:03:46.725Z,62.41
2022-08-21T22:06:23.087Z,62.93
2022-08-21T22:08:58.199Z,62.93
2022-08-21T22:11:31.774Z,64.67
2022-08-21T22:14:08.536Z,63.35
2022-08-21T22:16:37.845Z,63.92
2022-08-21T22:19:15.164Z,63.87
2022-08-21T22:21:49.341Z,63.45
2022-08-21T22:24:20.333Z,63.77
2022-08-21T22:26:51.243Z,65.65
2022-08-21T22:29:25.660Z,66.16
2022-08-21T22:32:05.110Z,65.21
2022-08-21T22:34:35.744Z,65.38
2022-08-21T22:37:08.985Z,65.28
2022-08-21T22:39:40.283Z,66.10
2022-08-21T22:42:13.470Z,65.69
2022-08-21T22:44:51.769Z,66.74
2022-08-21T22:47:23.520Z,67.49
2022-08-21T22:49:54.122Z,67.67
2022-08-21T22:52:26.300Z,67.06
2022-08-21T22:54:57.525Z,67.39
2022-08-21T22:57:30.486Z,68.09
2022-08-21T23:00:02.157Z,67.33
2022-08-21T23:02:36.529Z,68.17
2022-08-21T23:05:10.309Z,69.30
2022-08-21T23:07:44.473Z,69.14
2022-08-21T23:10:26.677Z,69.29
2022-08-21T23:13:03.457Z,70.32
2022-08-21T23:15:44.221Z,69.98
2022-08-21T23:18:21.104Z,69.64
2022-08-21T23:23:59.220Z,70.43
2022-08-21T23:26:30.300Z,70.41
2022-08-21T23:29:09.425Z,68.99
2022-08-21T23:31:43.210Z,66.94
2022-08-21T23:34:25.602Z,68.05
2022-08-21T23:37:48.579Z,66.14
2022-08-21T23:40:34.755Z,67.07
2022-08-21T23:43:11.786Z,67.06
2022-08-21T23:45:48.817Z,67.95
2022-08-21T23:48:29.657Z,67.17
2022-08-21T23:51:03.052Z,68.68
2022-08-21T23:53:39.312Z,70.20
2022-08-21T23:56:22.673Z,69.72
2022-08-21T23:59:04.115Z,70.07
